createdAt,value
2022-12-18T00:00:53.162Z,0
2022-12-18T00:02:09.446Z,0
2022-12-18T00:03:25.737Z,0
2022-12-18T00:04:42.041Z,0
2022-12-18T00:05:58.343Z,0
2022-12-18T00:07:14.632Z,0
2022-12-18T00:08:30.935Z,0
2022-12-18T00:09:47.218Z,0
2022-12-18T00:11:03.524Z,0
2022-12-18T00:12:19.811Z,0
2022-12-18T00:13:36.118Z,0
2022-12-18T00:14:52.404Z,0
2022-12-18T00:16:07.725Z,0
2022-12-18T00:17:24.023Z,0
2022-12-18T00:18:40.302Z,0
2022-12-18T00:19:56.603Z,0
2022-12-18T00:21:12.914Z,0
2022-12-18T00:22:29.202Z,0
2022-12-18T00:23:45.499Z,0
2022-12-18T00:25:01.800Z,0
2022-12-18T00:26:18.093Z,0
2022-12-18T00:27:34.373Z,0
2022-12-18T00:28:50.676Z,0
2022-12-18T00:30:06.980Z,0
2022-12-18T00:31:23.278Z,0
2022-12-18T00:32:38.577Z,0
2022-12-18T00:33:54.885Z,0
2022-12-18T00:35:11.163Z,0
2022-12-18T00:36:27.470Z,0
2022-12-18T00:37:43.767Z,0
2022-12-18T00:39:00.061Z,0
2022-12-18T00:40:16.359Z,0
2022-12-18T00:41:32.644Z,0
2022-12-18T00:42:48.935Z,0
2022-12-18T00:44:05.251Z,0
2022-12-18T00:45:21.550Z,0
2022-12-18T00:46:37.840Z,0
2022-12-18T00:47:54.140Z,0
2022-12-18T00:49:09.441Z,0
2022-12-18T00:50:25.744Z,0
2022-12-18T00:51:42.035Z,0
2022-12-18T00:52:58.337Z,0
2022-12-18T00:54:14.622Z,0
2022-12-18T00:55:30.910Z,0
2022-12-18T00:56:47.215Z,0
2022-12-18T00:58:03.512Z,0
2022-12-18T00:59:19.817Z,0
2022-12-18T01:00:36.094Z,0
2022-12-18T01:01:52.413Z,0
2022-12-18T01:03:08.712Z,0
2022-12-18T01:04:24.992Z,0
2022-12-18T01:05:40.303Z,0
2022-12-18T01:06:56.602Z,0
2022-12-18T01:08:12.883Z,0
2022-12-18T01:09:29.186Z,0
2022-12-18T01:10:45.482Z,0
2022-12-18T01:12:01.784Z,0
2022-12-18T01:13:18.091Z,0
2022-12-18T01:14:34.380Z,0
2022-12-18T01:15:50.672Z,0
2022-12-18T01:17:06.966Z,0
2022-12-18T01:18:23.249Z,0
2022-12-18T01:19:39.561Z,0
2022-12-18T01:20:55.853Z,0
2022-12-18T01:22:11.169Z,0
2022-12-18T01:23:27.470Z,0
2022-12-18T01:24:43.753Z,0
2022-12-18T01:26:00.054Z,0
2022-12-18T01:27:16.337Z,0
2022-12-18T01:28:32.641Z,0
2022-12-18T01:29:48.927Z,0
2022-12-18T01:31:05.234Z,0
2022-12-18T01:32:21.520Z,0
2022-12-18T01:33:37.823Z,0
2022-12-18T01:34:54.118Z,0
2022-12-18T01:36:10.412Z,0
2022-12-18T01:37:26.719Z,0
2022-12-18T01:38:42.031Z,0
2022-12-18T01:39:58.322Z,0
2022-12-18T01:41:14.608Z,0
2022-12-18T01:42:30.903Z,0
2022-12-18T01:43:47.192Z,0
2022-12-18T01:45:03.503Z,0
2022-12-18T01:46:19.791Z,0
2022-12-18T01:47:36.097Z,0
2022-12-18T01:48:52.381Z,0
2022-12-18T01:50:08.689Z,0
2022-12-18T01:51:24.985Z,0
2022-12-18T01:52:41.267Z,0
2022-12-18T01:53:57.573Z,0
2022-12-18T01:55:12.871Z,0
2022-12-18T01:56:29.166Z,0
2022-12-18T01:57:45.480Z,0
2022-12-18T01:59:01.769Z,0
2022-12-18T02:00:18.084Z,0
2022-12-18T02:01:34.364Z,0
2022-12-18T02:02:50.653Z,0
2022-12-18T02:04:06.957Z,0
2022-12-18T02:05:23.241Z,0
2022-12-18T02:06:39.553Z,0
2022-12-18T02:07:55.846Z,0
2022-12-18T02:09:12.129Z,0
2022-12-18T02:10:28.429Z,0
2022-12-18T02:11:43.757Z,0
2022-12-18T02:13:00.030Z,0
2022-12-18T02:14:16.348Z,0
2022-12-18T02:15:32.629Z,0
2022-12-18T02:16:48.927Z,0
2022-12-18T02:18:05.208Z,0
2022-12-18T02:19:21.516Z,0
2022-12-18T02:20:37.803Z,0
2022-12-18T02:21:54.118Z,0
2022-12-18T02:23:10.399Z,0
2022-12-18T02:24:26.696Z,0
2022-12-18T02:25:43.000Z,0
2022-12-18T02:26:59.294Z,0
2022-12-18T02:28:14.599Z,0
2022-12-18T02:29:30.899Z,0
2022-12-18T02:30:47.199Z,0
2022-12-18T02:32:03.479Z,0
2022-12-18T02:33:19.802Z,0
2022-12-18T02:34:36.077Z,0
2022-12-18T02:35:52.369Z,0
2022-12-18T02:37:08.684Z,0
2022-12-18T02:38:24.968Z,0
2022-12-18T02:39:41.256Z,0
2022-12-18T02:40:57.562Z,0
2022-12-18T02:42:13.866Z,0
2022-12-18T02:43:30.136Z,0
2022-12-18T02:44:45.460Z,0
2022-12-18T02:46:01.763Z,0
2022-12-18T02:47:18.043Z,0
2022-12-18T02:48:34.341Z,0
2022-12-18T02:49:50.636Z,0
2022-12-18T02:51:06.936Z,0
2022-12-18T02:52:23.229Z,0
2022-12-18T02:53:39.517Z,0
2022-12-18T02:54:55.823Z,0
2022-12-18T02:56:12.117Z,0
2022-12-18T02:57:28.408Z,0
2022-12-18T02:58:44.708Z,0
2022-12-18T03:00:01.011Z,0
2022-12-18T03:01:16.312Z,0
2022-12-18T03:02:32.615Z,0
2022-12-18T03:05:05.209Z,0
2022-12-18T03:06:21.500Z,0
2022-12-18T03:07:37.797Z,0
2022-12-18T03:08:54.093Z,0
2022-12-18T03:10:10.378Z,0
2022-12-18T03:12:42.968Z,0
2022-12-18T03:13:59.268Z,0
2022-12-18T03:15:15.568Z,0
2022-12-18T03:16:31.862Z,0
2022-12-18T03:17:47.169Z,0
2022-12-18T03:19:03.476Z,0
2022-12-18T03:20:19.764Z,0
2022-12-18T03:21:36.069Z,0
2022-12-18T03:22:52.358Z,0
2022-12-18T03:24:08.655Z,0
2022-12-18T03:25:24.946Z,0
2022-12-18T03:26:41.250Z,0
2022-12-18T03:27:57.536Z,0
2022-12-18T03:29:13.830Z,0
2022-12-18T03:30:30.125Z,0
2022-12-18T03:31:46.418Z,0
2022-12-18T03:33:02.722Z,0
2022-12-18T03:34:18.035Z,0
2022-12-18T03:35:34.332Z,0
2022-12-18T03:36:50.618Z,0
2022-12-18T03:38:06.923Z,0
2022-12-18T03:39:23.219Z,0
2022-12-18T03:40:39.508Z,0
2022-12-18T03:41:55.807Z,0
2022-12-18T03:43:12.095Z,0
2022-12-18T03:44:28.399Z,0
2022-12-18T03:45:44.686Z,0
2022-12-18T03:47:00.986Z,0
2022-12-18T03:48:17.287Z,0
2022-12-18T03:49:33.584Z,0
2022-12-18T03:50:48.897Z,0
2022-12-18T03:52:05.192Z,0
2022-12-18T03:53:21.489Z,0
2022-12-18T03:55:54.071Z,0
2022-12-18T03:57:10.384Z,0
2022-12-18T03:58:25.681Z,0
2022-12-18T03:59:41.984Z,0
2022-12-18T04:00:58.282Z,0
2022-12-18T04:02:14.572Z,0
2022-12-18T04:03:30.864Z,0
2022-12-18T04:06:03.473Z,0
2022-12-18T04:07:19.758Z,0
2022-12-18T04:08:36.057Z,0
2022-12-18T04:09:52.345Z,0
2022-12-18T04:11:08.638Z,0
2022-12-18T04:12:24.942Z,0
2022-12-18T04:13:41.240Z,0
2022-12-18T04:14:56.556Z,0
2022-12-18T04:16:12.841Z,0
2022-12-18T04:17:29.151Z,0
2022-12-18T04:18:45.436Z,0
2022-12-18T04:20:01.736Z,0
2022-12-18T04:21:18.021Z,0
2022-12-18T04:22:34.317Z,0
2022-12-18T04:23:50.621Z,0
2022-12-18T04:25:06.907Z,0
2022-12-18T04:26:23.208Z,0
2022-12-18T04:27:39.517Z,0
2022-12-18T04:28:55.811Z,0
2022-12-18T04:30:12.105Z,0
2022-12-18T04:31:28.514Z,0
2022-12-18T04:32:44.805Z,0
2022-12-18T04:34:01.100Z,0
2022-12-18T04:35:17.394Z,0
2022-12-18T04:36:33.697Z,0
2022-12-18T04:37:49.998Z,0
2022-12-18T04:39:06.293Z,0
2022-12-18T04:40:22.589Z,0
2022-12-18T04:41:38.879Z,0
2022-12-18T04:42:55.176Z,0
2022-12-18T04:44:11.480Z,0
2022-12-18T04:45:27.779Z,0
2022-12-18T04:46:44.057Z,0
2022-12-18T04:47:59.379Z,0
2022-12-18T04:49:15.669Z,0
2022-12-18T04:50:31.967Z,0
2022-12-18T04:51:48.265Z,0
2022-12-18T04:54:20.853Z,0
2022-12-18T04:55:37.150Z,0
2022-12-18T04:56:53.440Z,0
2022-12-18T04:58:09.753Z,0
2022-12-18T04:59:26.030Z,0
2022-12-18T05:00:42.327Z,0
2022-12-18T05:01:58.634Z,0
2022-12-18T05:03:14.925Z,0
2022-12-18T05:04:30.241Z,0
2022-12-18T05:05:46.538Z,0
2022-12-18T05:07:02.822Z,0
2022-12-18T05:08:19.129Z,0
2022-12-18T05:09:35.422Z,0
2022-12-18T05:10:51.711Z,0
2022-12-18T05:12:08.017Z,0
2022-12-18T05:13:24.306Z,0
2022-12-18T05:14:40.607Z,0
2022-12-18T05:15:56.899Z,0
2022-12-18T05:17:13.186Z,0
2022-12-18T05:18:29.484Z,0
2022-12-18T05:19:45.782Z,0
2022-12-18T05:21:01.088Z,0
2022-12-18T05:22:17.394Z,0
2022-12-18T05:23:33.680Z,0
2022-12-18T05:24:49.977Z,0
2022-12-18T05:26:06.284Z,0
2022-12-18T05:27:22.578Z,0
2022-12-18T05:28:38.883Z,0
2022-12-18T05:29:55.167Z,0
2022-12-18T05:31:11.462Z,0
2022-12-18T05:32:27.754Z,0
2022-12-18T05:33:44.053Z,0
2022-12-18T05:35:00.348Z,0
2022-12-18T05:36:16.641Z,0
2022-12-18T05:37:31.962Z,0
2022-12-18T05:38:48.261Z,0
2022-12-18T05:40:04.545Z,0
2022-12-18T05:41:20.849Z,0
2022-12-18T05:42:37.143Z,0
2022-12-18T05:43:53.432Z,0
2022-12-18T05:45:09.736Z,0
2022-12-18T05:46:26.025Z,0
2022-12-18T05:47:42.333Z,0
2022-12-18T05:48:58.613Z,0
2022-12-18T05:50:14.914Z,0
2022-12-18T05:51:31.221Z,0
2022-12-18T05:52:47.506Z,0
2022-12-18T05:54:02.822Z,0
2022-12-18T05:55:19.129Z,0
2022-12-18T05:56:35.405Z,0
2022-12-18T05:57:51.707Z,0
2022-12-18T05:59:08.000Z,0
2022-12-18T06:00:24.288Z,0
2022-12-18T06:01:40.589Z,0
2022-12-18T06:02:56.896Z,0
2022-12-18T06:04:13.187Z,0
2022-12-18T06:05:29.481Z,0
2022-12-18T06:06:45.780Z,0
2022-12-18T06:08:02.075Z,0
2022-12-18T06:09:18.362Z,0
2022-12-18T06:10:33.687Z,0
2022-12-18T06:11:49.976Z,0
2022-12-18T06:13:06.261Z,0
2022-12-18T06:14:22.569Z,0
2022-12-18T06:15:38.864Z,0
2022-12-18T06:16:55.159Z,0
2022-12-18T06:18:11.464Z,0
2022-12-18T06:19:27.694Z,0
2022-12-18T06:20:43.996Z,0
2022-12-18T06:22:00.289Z,0
2022-12-18T06:23:16.578Z,0
2022-12-18T06:24:32.840Z,0
2022-12-18T06:25:49.082Z,0
2022-12-18T06:27:04.394Z,0
2022-12-18T06:28:20.685Z,0
2022-12-18T06:29:36.931Z,0
2022-12-18T06:30:53.230Z,0
2022-12-18T06:32:09.487Z,0
2022-12-18T06:33:25.737Z,0
2022-12-18T06:34:41.968Z,0
2022-12-18T06:35:58.217Z,0
2022-12-18T06:37:14.450Z,0
2022-12-18T06:38:30.691Z,0
2022-12-18T06:39:46.949Z,0
2022-12-18T06:41:03.181Z,0
2022-12-18T06:42:19.430Z,0
2022-12-18T06:43:34.678Z,0
2022-12-18T06:44:50.933Z,0
2022-12-18T06:46:07.159Z,0
2022-12-18T06:47:23.402Z,0
2022-12-18T06:48:39.641Z,0
2022-12-18T06:49:55.883Z,0
2022-12-18T06:51:12.126Z,0
2022-12-18T06:52:28.365Z,0
2022-12-18T06:53:44.610Z,0
2022-12-18T06:55:00.855Z,0
2022-12-18T06:56:17.110Z,0
2022-12-18T06:57:33.340Z,5
2022-12-18T06:58:49.592Z,5
2022-12-18T07:00:04.836Z,5
2022-12-18T07:01:21.092Z,5
2022-12-18T07:03:53.559Z,5
2022-12-18T07:05:09.806Z,11
2022-12-18T07:06:26.040Z,11
2022-12-18T07:07:42.298Z,11
2022-12-18T07:08:58.529Z,11
2022-12-18T07:10:14.768Z,11
2022-12-18T07:11:31.020Z,16
2022-12-18T07:12:47.257Z,16
2022-12-18T07:14:03.492Z,16
2022-12-18T07:15:19.740Z,16
2022-12-18T07:16:35.010Z,22
2022-12-18T07:17:51.248Z,22
2022-12-18T07:19:07.476Z,22
2022-12-18T07:20:23.732Z,28
2022-12-18T07:21:39.972Z,28
2022-12-18T07:22:56.203Z,28
2022-12-18T07:24:12.461Z,33
2022-12-18T07:25:28.685Z,33
2022-12-18T07:26:44.926Z,33
2022-12-18T07:28:01.184Z,39
2022-12-18T07:29:17.410Z,39
2022-12-18T07:30:33.668Z,39
2022-12-18T07:31:49.896Z,45
2022-12-18T07:33:05.150Z,45
2022-12-18T07:34:21.400Z,45
2022-12-18T07:35:37.636Z,50
2022-12-18T07:36:53.878Z,50
2022-12-18T07:38:10.124Z,56
2022-12-18T07:39:26.377Z,56
2022-12-18T07:40:42.611Z,56
2022-12-18T07:41:58.855Z,61
2022-12-18T07:43:15.086Z,61
2022-12-18T07:44:31.332Z,67
2022-12-18T07:45:47.574Z,67
2022-12-18T07:47:03.828Z,67
2022-12-18T07:48:20.060Z,73
2022-12-18T07:49:35.324Z,73
2022-12-18T07:50:51.562Z,78
2022-12-18T07:52:07.800Z,78
2022-12-18T07:53:24.054Z,84
2022-12-18T07:54:40.285Z,84
2022-12-18T07:55:56.533Z,84
2022-12-18T07:57:12.770Z,90
2022-12-18T07:58:29.020Z,90
2022-12-18T07:59:45.252Z,95
2022-12-18T08:01:01.496Z,95
2022-12-18T08:02:17.743Z,95
2022-12-18T08:03:33.975Z,101
2022-12-18T08:04:50.222Z,101
2022-12-18T08:06:05.480Z,101
2022-12-18T08:07:21.727Z,106
2022-12-18T08:08:37.962Z,106
2022-12-18T08:09:54.194Z,112
2022-12-18T08:11:10.441Z,112
2022-12-18T08:12:26.689Z,112
2022-12-18T08:13:41.954Z,118
2022-12-18T08:14:58.189Z,118
2022-12-18T08:16:14.426Z,118
2022-12-18T08:17:30.681Z,123
2022-12-18T08:18:46.913Z,123
2022-12-18T08:20:03.163Z,129
2022-12-18T08:21:19.394Z,129
2022-12-18T08:22:35.649Z,129
2022-12-18T08:23:51.879Z,135
2022-12-18T08:25:08.123Z,135
2022-12-18T08:26:24.377Z,140
2022-12-18T08:27:40.607Z,140
2022-12-18T08:28:56.860Z,140
2022-12-18T08:30:12.106Z,146
2022-12-18T08:31:28.358Z,146
2022-12-18T08:32:44.589Z,146
2022-12-18T08:34:00.828Z,151
2022-12-18T08:35:17.084Z,151
2022-12-18T08:36:33.315Z,151
2022-12-18T08:37:49.570Z,157
2022-12-18T08:39:05.798Z,157
2022-12-18T08:40:22.036Z,157
2022-12-18T08:41:38.291Z,163
2022-12-18T08:42:54.527Z,163
2022-12-18T08:44:10.765Z,163
2022-12-18T08:45:27.006Z,168
2022-12-18T08:46:42.271Z,168
2022-12-18T08:47:58.507Z,168
2022-12-18T08:49:14.745Z,174
2022-12-18T08:50:30.998Z,174
2022-12-18T08:51:47.237Z,168
2022-12-18T08:53:03.469Z,174
2022-12-18T08:54:19.722Z,174
2022-12-18T08:55:35.965Z,180
2022-12-18T08:56:52.194Z,185
2022-12-18T08:58:08.437Z,298
2022-12-18T08:59:24.702Z,1479
2022-12-18T09:00:40.935Z,1794
2022-12-18T09:01:57.178Z,2216
2022-12-18T09:03:12.437Z,2120
2022-12-18T09:04:28.683Z,1980
2022-12-18T09:05:44.917Z,2255
2022-12-18T09:07:01.160Z,2081
2022-12-18T09:08:17.404Z,2143
2022-12-18T09:09:33.642Z,2233
2022-12-18T09:10:49.878Z,2064
2022-12-18T09:12:06.133Z,2165
2022-12-18T09:13:22.356Z,2463
2022-12-18T09:14:38.601Z,2171
2022-12-18T09:15:54.843Z,2379
2022-12-18T09:17:11.084Z,2430
2022-12-18T09:18:27.322Z,2295
2022-12-18T09:19:42.580Z,2328
2022-12-18T09:20:58.825Z,2250
2022-12-18T09:22:15.062Z,2295
2022-12-18T09:23:31.313Z,2396
2022-12-18T09:24:47.534Z,2655
2022-12-18T09:26:03.781Z,2621
2022-12-18T09:27:20.013Z,2514
2022-12-18T09:28:36.268Z,2328
2022-12-18T09:29:52.508Z,2148
2022-12-18T09:31:08.743Z,2610
2022-12-18T09:32:24.977Z,2649
2022-12-18T09:33:41.213Z,2756
2022-12-18T09:34:57.471Z,2452
2022-12-18T09:36:12.709Z,2413
2022-12-18T09:37:28.959Z,2452
2022-12-18T09:38:45.191Z,2666
2022-12-18T09:40:01.441Z,2756
2022-12-18T09:41:17.674Z,2430
2022-12-18T09:43:50.159Z,2165
2022-12-18T09:45:06.406Z,2340
2022-12-18T09:46:22.641Z,2632
2022-12-18T09:47:38.886Z,2272
2022-12-18T09:48:55.123Z,2823
2022-12-18T09:50:11.361Z,2649
2022-12-18T09:51:27.591Z,2525
2022-12-18T09:52:42.848Z,2362
2022-12-18T09:53:59.084Z,2570
2022-12-18T09:55:15.335Z,2581
2022-12-18T09:56:31.563Z,2745
2022-12-18T09:57:47.811Z,2801
2022-12-18T09:59:04.055Z,2671
2022-12-18T10:00:20.287Z,2660
2022-12-18T10:01:36.526Z,2908
2022-12-18T10:02:52.778Z,2812
2022-12-18T10:04:09.014Z,2621
2022-12-18T10:05:25.245Z,2851
2022-12-18T10:06:41.494Z,2818
2022-12-18T10:07:57.719Z,2593
2022-12-18T10:09:12.982Z,2947
2022-12-18T10:10:29.221Z,2615
2022-12-18T10:11:45.462Z,2649
2022-12-18T10:13:01.710Z,2520
2022-12-18T10:14:17.936Z,2075
2022-12-18T10:15:34.191Z,2300
2022-12-18T10:16:50.414Z,2930
2022-12-18T10:18:06.652Z,2694
2022-12-18T10:19:22.905Z,2874
2022-12-18T10:20:39.142Z,2919
2022-12-18T10:21:55.379Z,3330
2022-12-18T10:23:11.629Z,3076
2022-12-18T10:24:27.863Z,2266
2022-12-18T10:25:43.120Z,2632
2022-12-18T10:26:59.350Z,2795
2022-12-18T10:28:15.598Z,2548
2022-12-18T10:29:31.844Z,2902
2022-12-18T10:30:48.077Z,2700
2022-12-18T10:32:04.319Z,2964
2022-12-18T10:33:20.553Z,2559
2022-12-18T10:34:36.788Z,2475
2022-12-18T10:35:53.032Z,2846
2022-12-18T10:37:09.284Z,2784
2022-12-18T10:38:25.516Z,2925
2022-12-18T10:39:41.752Z,2806
2022-12-18T10:40:58.001Z,2896
2022-12-18T10:42:13.246Z,2497
2022-12-18T10:43:29.502Z,2463
2022-12-18T10:44:45.735Z,3031
2022-12-18T10:46:01.968Z,3195
2022-12-18T10:47:18.220Z,3037
2022-12-18T10:48:34.452Z,3037
2022-12-18T10:49:50.684Z,2688
2022-12-18T10:51:06.927Z,2671
2022-12-18T10:52:23.177Z,2801
2022-12-18T10:53:39.407Z,2857
2022-12-18T10:54:55.661Z,2936
2022-12-18T10:56:11.895Z,2863
2022-12-18T10:57:28.141Z,2913
2022-12-18T10:59:59.629Z,2778
2022-12-18T11:01:15.872Z,2829
2022-12-18T11:02:32.114Z,2790
2022-12-18T11:03:48.346Z,2491
2022-12-18T11:05:04.581Z,2795
2022-12-18T11:06:20.837Z,2722
2022-12-18T11:07:37.075Z,3048
2022-12-18T11:08:53.311Z,2520
2022-12-18T11:10:09.557Z,2711
2022-12-18T11:11:25.791Z,2615
2022-12-18T11:12:42.028Z,2593
2022-12-18T11:13:58.264Z,2390
2022-12-18T11:15:13.525Z,2722
2022-12-18T11:16:29.773Z,2823
2022-12-18T11:17:46.010Z,2823
2022-12-18T11:19:02.247Z,2525
2022-12-18T11:20:18.491Z,2632
2022-12-18T11:21:34.723Z,2598
2022-12-18T11:22:50.956Z,2356
2022-12-18T11:24:07.207Z,1996
2022-12-18T11:25:23.460Z,2261
2022-12-18T11:26:39.698Z,2098
2022-12-18T11:27:55.935Z,2109
2022-12-18T11:29:12.169Z,1918
2022-12-18T11:30:28.404Z,2210
2022-12-18T11:31:43.650Z,2446
2022-12-18T11:32:59.892Z,2677
2022-12-18T11:34:16.143Z,2531
2022-12-18T11:35:32.383Z,2514
2022-12-18T11:36:48.629Z,2323
2022-12-18T11:38:04.855Z,2385
2022-12-18T11:39:21.102Z,2345
2022-12-18T11:40:37.329Z,2491
2022-12-18T11:41:53.581Z,2756
2022-12-18T11:43:09.811Z,2379
2022-12-18T11:44:26.069Z,2283
2022-12-18T11:45:42.300Z,2255
2022-12-18T11:46:58.534Z,2041
2022-12-18T11:48:13.791Z,2092
2022-12-18T11:49:30.031Z,1912
2022-12-18T11:50:46.000Z,2266
2022-12-18T11:52:02.520Z,2295
2022-12-18T11:53:18.750Z,950
2022-12-18T11:54:35.000Z,348
2022-12-18T11:55:51.237Z,331
2022-12-18T11:57:07.475Z,326
2022-12-18T11:58:23.714Z,320
2022-12-18T11:59:39.950Z,331
2022-12-18T12:00:56.200Z,326
2022-12-18T12:02:12.430Z,320
2022-12-18T12:03:28.664Z,337
2022-12-18T12:04:43.940Z,326
2022-12-18T12:06:00.165Z,337
2022-12-18T12:07:16.417Z,337
2022-12-18T12:08:32.645Z,320
2022-12-18T12:09:48.878Z,326
2022-12-18T12:11:05.125Z,348
2022-12-18T12:12:21.372Z,365
2022-12-18T12:13:37.598Z,371
2022-12-18T12:14:53.850Z,421
2022-12-18T12:16:10.097Z,517
2022-12-18T12:17:26.328Z,517
2022-12-18T12:18:42.570Z,630
2022-12-18T12:19:58.804Z,956
2022-12-18T12:21:14.068Z,990
2022-12-18T12:22:30.310Z,838
2022-12-18T12:23:46.546Z,798
2022-12-18T12:25:02.776Z,618
2022-12-18T12:26:19.034Z,517
2022-12-18T12:27:35.272Z,421
2022-12-18T12:28:50.532Z,382
2022-12-18T12:30:06.766Z,309
2022-12-18T12:31:23.017Z,286
2022-12-18T12:32:39.236Z,270
2022-12-18T12:33:55.477Z,281
2022-12-18T12:35:11.728Z,298
2022-12-18T12:36:27.970Z,298
2022-12-18T12:37:44.198Z,286
2022-12-18T12:39:00.444Z,286
2022-12-18T12:40:16.684Z,281
2022-12-18T12:41:32.931Z,281
2022-12-18T12:42:49.179Z,264
2022-12-18T12:44:05.412Z,253
2022-12-18T12:45:20.675Z,253
2022-12-18T12:46:36.916Z,247
2022-12-18T12:47:53.152Z,230
2022-12-18T12:49:09.000Z,225
2022-12-18T12:50:25.623Z,219
2022-12-18T12:51:41.874Z,213
2022-12-18T12:52:58.103Z,219
2022-12-18T12:54:14.344Z,241
2022-12-18T12:55:30.595Z,236
2022-12-18T12:56:46.819Z,241
2022-12-18T12:58:03.058Z,230
2022-12-18T12:59:19.309Z,270
2022-12-18T13:00:35.546Z,292
2022-12-18T13:01:50.810Z,286
2022-12-18T13:03:07.044Z,320
2022-12-18T13:04:23.279Z,320
2022-12-18T13:05:39.524Z,315
2022-12-18T13:06:55.762Z,315
2022-12-18T13:08:12.009Z,382
2022-12-18T13:09:28.243Z,410
2022-12-18T13:10:44.490Z,343
2022-12-18T13:12:00.736Z,270
2022-12-18T13:13:16.972Z,225
2022-12-18T13:14:33.224Z,225
2022-12-18T13:15:49.464Z,219
2022-12-18T13:17:05.701Z,219
2022-12-18T13:18:20.941Z,213
2022-12-18T13:19:37.201Z,213
2022-12-18T13:20:53.428Z,208
2022-12-18T13:22:09.674Z,202
2022-12-18T13:23:25.910Z,196
2022-12-18T13:24:42.162Z,191
2022-12-18T13:25:58.385Z,185
2022-12-18T13:27:14.652Z,180
2022-12-18T13:28:30.867Z,168
2022-12-18T13:29:47.112Z,163
2022-12-18T13:31:03.353Z,157
2022-12-18T13:32:19.593Z,151
2022-12-18T13:33:35.833Z,151
2022-12-18T13:34:51.091Z,146
2022-12-18T13:36:07.338Z,135
2022-12-18T13:37:23.573Z,135
2022-12-18T13:38:39.809Z,129
2022-12-18T13:39:56.063Z,129
2022-12-18T13:41:12.305Z,123
2022-12-18T13:42:28.534Z,118
2022-12-18T13:43:44.779Z,112
2022-12-18T13:45:01.023Z,106
2022-12-18T13:46:17.250Z,101
2022-12-18T13:47:33.511Z,101
2022-12-18T13:48:49.742Z,95
2022-12-18T13:50:05.989Z,90
2022-12-18T13:51:21.253Z,84
2022-12-18T13:52:37.483Z,78
2022-12-18T13:53:53.729Z,78
2022-12-18T13:55:09.959Z,73
2022-12-18T13:56:26.211Z,73
2022-12-18T13:57:42.447Z,67
2022-12-18T13:58:58.674Z,67
2022-12-18T14:00:14.926Z,67
2022-12-18T14:01:31.159Z,67
2022-12-18T14:02:47.405Z,67
2022-12-18T14:04:03.645Z,67
2022-12-18T14:05:19.894Z,67
2022-12-18T14:06:36.139Z,67
2022-12-18T14:07:51.382Z,61
2022-12-18T14:09:07.623Z,61
2022-12-18T14:10:23.867Z,61
2022-12-18T14:11:40.100Z,56
2022-12-18T14:12:56.341Z,56
2022-12-18T14:14:12.593Z,50
2022-12-18T14:15:28.834Z,50
2022-12-18T14:16:45.082Z,50
2022-12-18T14:18:01.312Z,50
2022-12-18T14:19:17.551Z,50
2022-12-18T14:21:50.042Z,45
2022-12-18T14:23:06.287Z,45
2022-12-18T14:24:21.528Z,45
2022-12-18T14:25:37.774Z,45
2022-12-18T14:26:54.020Z,39
2022-12-18T14:28:10.258Z,39
2022-12-18T14:29:26.497Z,39
2022-12-18T14:30:42.736Z,39
2022-12-18T14:31:58.974Z,33
2022-12-18T14:33:15.230Z,33
2022-12-18T14:34:31.464Z,33
2022-12-18T14:35:47.694Z,28
2022-12-18T14:37:03.951Z,28
2022-12-18T14:38:20.190Z,28
2022-12-18T14:39:36.429Z,22
2022-12-18T14:40:51.691Z,22
2022-12-18T14:42:07.923Z,22
2022-12-18T14:43:24.168Z,22
2022-12-18T14:44:40.407Z,16
2022-12-18T14:45:56.643Z,16
2022-12-18T14:47:12.886Z,16
2022-12-18T14:48:29.125Z,16
2022-12-18T14:49:45.365Z,11
2022-12-18T14:51:01.612Z,11
2022-12-18T14:52:17.856Z,11
2022-12-18T14:53:34.094Z,11
2022-12-18T14:54:50.338Z,5
2022-12-18T14:56:06.574Z,5
2022-12-18T14:57:21.838Z,5
2022-12-18T14:58:38.077Z,5
2022-12-18T14:59:54.310Z,5
2022-12-18T15:01:10.569Z,5
2022-12-18T15:02:26.807Z,5
2022-12-18T15:03:43.036Z,0
2022-12-18T15:04:59.273Z,0
2022-12-18T15:06:15.515Z,0
2022-12-18T15:07:31.767Z,0
2022-12-18T15:08:48.007Z,0
2022-12-18T15:10:04.243Z,0
2022-12-18T15:11:20.490Z,0
2022-12-18T15:12:36.720Z,0
2022-12-18T15:13:51.993Z,0
2022-12-18T15:15:08.236Z,0
2022-12-18T15:16:24.472Z,0
2022-12-18T15:17:40.706Z,0
2022-12-18T15:18:56.955Z,0
2022-12-18T15:20:13.199Z,0
2022-12-18T15:21:29.431Z,0
2022-12-18T15:22:45.680Z,0
2022-12-18T15:24:01.921Z,0
2022-12-18T15:25:18.152Z,0
2022-12-18T15:26:34.400Z,0
2022-12-18T15:27:50.639Z,0
2022-12-18T15:29:06.886Z,0
2022-12-18T15:30:22.143Z,0
2022-12-18T15:31:38.376Z,0
2022-12-18T15:32:54.615Z,0
2022-12-18T15:34:10.872Z,0
2022-12-18T15:35:27.110Z,0
2022-12-18T15:36:43.405Z,0
2022-12-18T15:37:59.693Z,0
2022-12-18T15:39:15.987Z,0
2022-12-18T15:40:32.294Z,0
2022-12-18T15:41:48.584Z,0
2022-12-18T15:43:04.874Z,0
2022-12-18T15:44:21.175Z,0
2022-12-18T15:45:37.471Z,0
2022-12-18T15:46:52.787Z,0
2022-12-18T15:48:09.000Z,0
2022-12-18T15:49:25.369Z,0
2022-12-18T15:50:41.657Z,0
2022-12-18T15:51:57.957Z,0
2022-12-18T15:53:14.247Z,0
2022-12-18T15:54:30.551Z,0
2022-12-18T15:55:46.853Z,0
2022-12-18T15:57:03.134Z,0
2022-12-18T15:58:19.424Z,0
2022-12-18T15:59:35.728Z,0
2022-12-18T16:00:52.034Z,0
2022-12-18T16:02:08.317Z,0
2022-12-18T16:04:39.924Z,0
2022-12-18T16:05:56.231Z,0
2022-12-18T16:07:12.524Z,0
2022-12-18T16:08:28.811Z,0
2022-12-18T16:09:45.108Z,0
2022-12-18T16:11:01.400Z,0
2022-12-18T16:12:17.691Z,0
2022-12-18T16:13:33.984Z,0
2022-12-18T16:14:50.290Z,0
2022-12-18T16:16:06.589Z,0
2022-12-18T16:17:22.869Z,0
2022-12-18T16:18:39.184Z,0
2022-12-18T16:19:54.479Z,0
2022-12-18T16:21:10.788Z,0
2022-12-18T16:22:27.073Z,0
2022-12-18T16:23:43.374Z,0
2022-12-18T16:26:15.967Z,0
2022-12-18T16:27:32.265Z,0
2022-12-18T16:28:48.545Z,0
2022-12-18T16:30:04.856Z,0
2022-12-18T16:31:21.135Z,0
2022-12-18T16:32:37.444Z,0
2022-12-18T16:33:53.736Z,0
2022-12-18T16:35:10.031Z,0
2022-12-18T16:36:25.332Z,0
2022-12-18T16:37:41.627Z,0
2022-12-18T16:38:57.935Z,0
2022-12-18T16:40:14.226Z,0
2022-12-18T16:41:30.514Z,0
2022-12-18T16:42:46.817Z,0
2022-12-18T16:44:02.137Z,0
2022-12-18T16:45:18.428Z,0
2022-12-18T16:46:34.722Z,0
2022-12-18T16:47:51.023Z,0
2022-12-18T16:49:07.306Z,0
2022-12-18T16:50:23.610Z,0
2022-12-18T16:51:39.906Z,0
2022-12-18T16:52:56.201Z,0
2022-12-18T16:54:12.486Z,0
2022-12-18T16:55:28.784Z,0
2022-12-18T16:56:45.085Z,0
2022-12-18T16:58:01.370Z,0
2022-12-18T16:59:17.684Z,0
2022-12-18T17:00:32.977Z,0
2022-12-18T17:01:49.291Z,0
2022-12-18T17:03:05.583Z,0
2022-12-18T17:04:21.883Z,0
2022-12-18T17:05:38.171Z,0
2022-12-18T17:06:54.456Z,0
2022-12-18T17:08:10.756Z,0
2022-12-18T17:09:27.058Z,0
2022-12-18T17:10:43.342Z,0
2022-12-18T17:11:59.647Z,0
2022-12-18T17:13:15.937Z,0
2022-12-18T17:14:32.235Z,0
2022-12-18T17:15:48.531Z,0
2022-12-18T17:17:03.835Z,0
2022-12-18T17:18:20.148Z,0
2022-12-18T17:19:36.430Z,0
2022-12-18T17:20:52.721Z,0
2022-12-18T17:22:09.033Z,0
2022-12-18T17:23:25.315Z,0
2022-12-18T17:24:41.614Z,0
2022-12-18T17:25:57.916Z,0
2022-12-18T17:27:14.207Z,0
2022-12-18T17:28:30.507Z,0
2022-12-18T17:29:46.799Z,0
2022-12-18T17:31:03.091Z,0
2022-12-18T17:32:19.377Z,0
2022-12-18T17:33:34.690Z,0
2022-12-18T17:34:50.986Z,0
2022-12-18T17:36:07.295Z,0
2022-12-18T17:37:23.578Z,0
2022-12-18T17:38:39.876Z,0
2022-12-18T17:39:56.172Z,0
2022-12-18T17:41:12.479Z,0
2022-12-18T17:42:28.770Z,0
2022-12-18T17:43:45.053Z,0
2022-12-18T17:45:01.354Z,0
2022-12-18T17:46:17.644Z,0
2022-12-18T17:47:33.938Z,0
2022-12-18T17:48:50.243Z,0
2022-12-18T17:50:05.545Z,0
2022-12-18T17:51:21.851Z,0
2022-12-18T17:52:38.133Z,0
2022-12-18T17:53:54.427Z,0
2022-12-18T17:55:10.727Z,0
2022-12-18T17:56:27.024Z,0
2022-12-18T17:57:43.325Z,0
2022-12-18T17:58:59.609Z,0
2022-12-18T18:00:15.912Z,0
2022-12-18T18:01:32.213Z,0
2022-12-18T18:02:48.503Z,0
2022-12-18T18:04:04.788Z,0
2022-12-18T18:05:21.096Z,0
2022-12-18T18:06:36.000Z,0
2022-12-18T18:07:52.708Z,0
2022-12-18T18:09:08.992Z,0
2022-12-18T18:10:25.294Z,0
2022-12-18T18:11:41.593Z,0
2022-12-18T18:12:57.891Z,0
2022-12-18T18:14:14.178Z,0
2022-12-18T18:15:30.470Z,0
2022-12-18T18:16:46.766Z,0
2022-12-18T18:18:03.055Z,0
2022-12-18T18:19:19.353Z,0
2022-12-18T18:20:35.647Z,0
2022-12-18T18:21:51.948Z,0
2022-12-18T18:23:07.249Z,0
2022-12-18T18:24:23.552Z,0